Time;durP1;ratioP1;P1;durP2;ratioP2;P2;SDS_P1;SDS_P2;PMS_P1;PMS_P2;Temp;Humidity;BMP_temperature;BMP_pressure;BME280_temperature;BME280_humidity;BME280_pressure;Samples;Min_cycle;Max_cycle;Signal;HPM_P1;HPM_P2
2022/01/14 00:01:06;;;;;;;32.50;22.87;;;;;;;;;;143739;631;46012;-53
2022/01/14 00:03:34;;;;;;;32.35;22.20;;;;;;;;;;143731;604;46020;-53
2022/01/14 00:06:01;;;;;;;34.15;22.90;;;;;;;;;;143738;594;46020;-53
2022/01/14 00:08:28;;;;;;;35.33;24.85;;;;;;;;;;143737;593;46023;-54
2022/01/14 00:10:57;;;;;;;44.03;26.27;;;;;;;;;;143738;570;46012;-53
2022/01/14 00:16:09;;;;;;;48.30;29.37;;;;;;;;;;143740;565;46021;-53
2022/01/14 00:18:36;;;;;;;44.50;27.70;;;;;;;;;;143738;581;46050;-54
2022/01/14 00:21:03;;;;;;;42.97;27.25;;;;;;;;;;143738;585;46012;-54
2022/01/14 00:23:35;;;;;;;42.80;29.25;;;;;;;;;;143738;577;46021;-54
2022/01/14 00:34:36;;;;;;;34.35;22.52;;;;;;;;;;143738;755;46022;-53
2022/01/14 00:37:03;;;;;;;36.60;24.40;;;;;;;;;;143740;718;46021;-54
2022/01/14 00:39:30;;;;;;;30.55;20.33;;;;;;;;;;143735;709;47023;-53
2022/01/14 00:41:57;;;;;;;38.10;25.55;;;;;;;;;;143738;590;46012;-54
2022/01/14 00:44:25;;;;;;;39.38;24.42;;;;;;;;;;143737;676;46021;-54
2022/01/14 00:46:52;;;;;;;33.60;23.83;;;;;;;;;;143742;608;46021;-54
2022/01/14 00:49:20;;;;;;;30.83;22.27;;;;;;;;;;143740;610;46022;-53
2022/01/14 00:51:48;;;;;;;32.80;22.33;;;;;;;;;;143736;614;46021;-54
2022/01/14 00:54:17;;;;;;;34.40;20.37;;;;;;;;;;143733;602;46021;-54
2022/01/14 00:57:01;;;;;;;34.45;22.50;;;;;;;;;;143739;608;46020;-54
2022/01/14 00:59:28;;;;;;;36.90;24.05;;;;;;;;;;143737;600;46022;-54
2022/01/14 01:01:59;;;;;;;42.15;25.58;;;;;;;;;;143739;656;46012;-54
2022/01/14 01:04:33;;;;;;;33.38;23.10;;;;;;;;;;143736;602;46020;-54
2022/01/14 01:07:03;;;;;;;33.00;22.40;;;;;;;;;;143743;573;46020;-54
2022/01/14 01:09:30;;;;;;;34.47;23.20;;;;;;;;;;143740;564;46051;-54
2022/01/14 01:12:11;;;;;;;31.67;21.25;;;;;;;;;;143735;593;46917;-54
2022/01/14 01:14:46;;;;;;;29.08;20.20;;;;;;;;;;143739;575;46020;-54
2022/01/14 01:17:14;;;;;;;35.55;23.62;;;;;;;;;;143736;607;46020;-53
2022/01/14 01:19:41;;;;;;;36.22;24.45;;;;;;;;;;143735;607;46022;-54
2022/01/14 01:22:09;;;;;;;33.90;24.17;;;;;;;;;;143740;615;46012;-54
2022/01/14 01:24:36;;;;;;;35.22;24.00;;;;;;;;;;143736;573;46020;-54
2022/01/14 01:27:06;;;;;;;35.28;24.58;;;;;;;;;;143738;573;46020;-54
2022/01/14 01:32:23;;;;;;;39.42;26.08;;;;;;;;;;143739;587;46020;-54
2022/01/14 01:34:50;;;;;;;40.92;26.10;;;;;;;;;;143735;583;46020;-54
2022/01/14 01:37:18;;;;;;;36.15;24.65;;;;;;;;;;143741;659;46020;-54
2022/01/14 01:39:45;;;;;;;36.47;24.98;;;;;;;;;;143740;579;46023;-54
2022/01/14 01:42:11;;;;;;;36.33;24.00;;;;;;;;;;143739;571;46012;-54
2022/01/14 01:44:40;;;;;;;36.10;24.80;;;;;;;;;;143733;570;46021;-53
2022/01/14 01:47:07;;;;;;;36.38;24.70;;;;;;;;;;143739;583;46021;-54
2022/01/14 01:49:38;;;;;;;36.97;23.45;;;;;;;;;;143729;579;47022;-53
2022/01/14 01:52:06;;;;;;;39.30;25.62;;;;;;;;;;143736;590;47012;-54
2022/01/14 01:54:33;;;;;;;33.47;23.25;;;;;;;;;;143738;564;46021;-53
2022/01/14 01:57:00;;;;;;;38.85;24.90;;;;;;;;;;143741;738;46020;-53
2022/01/14 01:59:28;;;;;;;33.50;23.65;;;;;;;;;;143740;579;46038;-54
2022/01/14 02:02:00;;;;;;;37.30;25.00;;;;;;;;;;143740;598;46012;-54
2022/01/14 02:04:28;;;;;;;38.35;24.92;;;;;;;;;;143740;606;46020;-54
2022/01/14 02:06:57;;;;;;;34.58;25.17;;;;;;;;;;143738;620;46021;-54
2022/01/14 02:09:24;;;;;;;35.47;23.80;;;;;;;;;;143736;703;46023;-54
2022/01/14 02:11:52;;;;;;;38.63;25.73;;;;;;;;;;143740;567;46012;-53
2022/01/14 02:14:53;;;;;;;39.05;24.67;;;;;;;;;;143739;598;46021;-53
2022/01/14 02:17:32;;;;;;;37.50;24.55;;;;;;;;;;143742;644;46022;-54
2022/01/14 02:22:56;;;;;;;39.88;27.02;;;;;;;;;;143734;581;46021;-54
2022/01/14 02:25:30;;;;;;;39.50;25.15;;;;;;;;;;143738;599;46020;-53
2022/01/14 02:28:13;;;;;;;40.15;25.48;;;;;;;;;;143735;582;46020;-53
2022/01/14 02:30:42;;;;;;;40.80;27.73;;;;;;;;;;143738;592;46023;-54
2022/01/14 02:33:11;;;;;;;38.63;25.77;;;;;;;;;;143738;604;46012;-53
2022/01/14 02:35:39;;;;;;;36.10;23.75;;;;;;;;;;143734;599;46020;-54
2022/01/14 02:38:09;;;;;;;34.15;23.55;;;;;;;;;;143741;606;46021;-54
2022/01/14 02:40:37;;;;;;;39.05;24.60;;;;;;;;;;143740;593;46022;-54
2022/01/14 02:43:06;;;;;;;32.50;22.20;;;;;;;;;;143740;570;46012;-53
2022/01/14 02:45:34;;;;;;;32.30;21.12;;;;;;;;;;143741;583;46021;-53
2022/01/14 02:48:02;;;;;;;32.67;22.33;;;;;;;;;;143743;614;46020;-54
2022/01/14 02:50:52;;;;;;;34.85;23.33;;;;;;;;;;143740;763;46022;-54
2022/01/14 02:56:09;;;;;;;32.40;21.70;;;;;;;;;;143739;604;46020;-54
2022/01/14 02:58:38;;;;;;;32.85;20.88;;;;;;;;;;143740;593;46020;-54
2022/01/14 03:01:13;;;;;;;29.48;20.80;;;;;;;;;;143737;589;46023;-53
2022/01/14 03:03:43;;;;;;;30.67;21.10;;;;;;;;;;143740;599;46020;-54
2022/01/14 03:06:11;;;;;;;36.25;23.12;;;;;;;;;;143739;589;46023;-53
2022/01/14 03:08:38;;;;;;;35.08;23.23;;;;;;;;;;143741;634;46019;-54
2022/01/14 03:11:10;;;;;;;37.20;24.20;;;;;;;;;;143741;605;46022;-54
2022/01/14 03:13:38;;;;;;;37.30;24.20;;;;;;;;;;143739;591;46012;-54
2022/01/14 03:16:05;;;;;;;31.37;22.15;;;;;;;;;;143740;591;46021;-54
2022/01/14 03:18:47;;;;;;;32.28;22.92;;;;;;;;;;143743;691;46020;-54
2022/01/14 03:21:17;;;;;;;34.50;24.23;;;;;;;;;;143740;728;46022;-54
2022/01/14 03:23:49;;;;;;;35.08;21.85;;;;;;;;;;143743;567;46012;-53
2022/01/14 03:26:21;;;;;;;37.67;23.38;;;;;;;;;;143739;602;46020;-53
2022/01/14 03:28:49;;;;;;;39.80;26.42;;;;;;;;;;143741;605;46020;-53
2022/01/14 03:31:16;;;;;;;32.50;21.87;;;;;;;;;;143740;728;46023;-54
2022/01/14 03:33:43;;;;;;;49.35;28.42;;;;;;;;;;143739;640;46012;-54
2022/01/14 03:36:10;;;;;;;50.47;30.75;;;;;;;;;;143739;598;46021;-54
2022/01/14 03:38:38;;;;;;;46.10;28.80;;;;;;;;;;143740;653;46021;-53
2022/01/14 03:41:06;;;;;;;44.60;28.20;;;;;;;;;;143740;572;46022;-54
2022/01/14 03:43:33;;;;;;;43.13;25.12;;;;;;;;;;143742;640;46012;-54
2022/01/14 03:46:00;;;;;;;43.38;27.55;;;;;;;;;;143739;591;46021;-54
2022/01/14 03:48:27;;;;;;;35.30;23.52;;;;;;;;;;143741;569;46020;-54
2022/01/14 03:50:54;;;;;;;38.17;26.33;;;;;;;;;;143737;706;46022;-54
2022/01/14 03:53:22;;;;;;;49.58;27.80;;;;;;;;;;143747;596;46012;-54
2022/01/14 03:55:49;;;;;;;47.22;29.90;;;;;;;;;;143740;656;46020;-53
2022/01/14 03:58:16;;;;;;;44.83;27.77;;;;;;;;;;143743;577;46021;-54
2022/01/14 04:00:43;;;;;;;43.92;27.60;;;;;;;;;;143740;576;46046;-54
2022/01/14 04:03:10;;;;;;;41.60;27.73;;;;;;;;;;143741;590;46012;-54
2022/01/14 04:05:37;;;;;;;43.65;27.65;;;;;;;;;;143739;709;46021;-53
2022/01/14 04:08:04;;;;;;;48.60;30.08;;;;;;;;;;143742;565;46021;-54
2022/01/14 04:10:31;;;;;;;45.70;30.35;;;;;;;;;;143739;616;46022;-53
2022/01/14 04:13:05;;;;;;;40.45;28.77;;;;;;;;;;143741;600;46013;-53
2022/01/14 04:15:44;;;;;;;45.08;28.92;;;;;;;;;;143734;614;46021;-54
2022/01/14 04:18:19;;;;;;;44.97;30.45;;;;;;;;;;143739;574;46020;-54
2022/01/14 04:20:48;;;;;;;44.70;30.33;;;;;;;;;;143740;603;46022;-54
2022/01/14 04:23:24;;;;;;;47.67;30.35;;;;;;;;;;143746;577;46012;-54
2022/01/14 04:25:53;;;;;;;40.90;27.08;;;;;;;;;;143740;571;46020;-54
2022/01/14 04:28:25;;;;;;;40.42;28.27;;;;;;;;;;143744;577;46020;-54
2022/01/14 04:30:56;;;;;;;46.35;29.95;;;;;;;;;;143740;586;46051;-54
2022/01/14 04:33:28;;;;;;;42.78;27.85;;;;;;;;;;143740;571;47012;-53
2022/01/14 04:35:56;;;;;;;46.95;29.85;;;;;;;;;;143740;617;46021;-54
2022/01/14 04:38:23;;;;;;;48.55;28.00;;;;;;;;;;143737;599;46021;-54
2022/01/14 04:40:51;;;;;;;45.88;28.92;;;;;;;;;;143734;566;47022;-53
2022/01/14 04:43:19;;;;;;;42.95;27.08;;;;;;;;;;143739;618;46012;-53
2022/01/14 04:46:23;;;;;;;45.80;29.65;;;;;;;;;;143740;608;46021;-53
2022/01/14 04:48:45;;;;;;;44.92;28.12;;;;;;;;;;143740;601;46034;-54
2022/01/14 04:51:13;;;;;;;45.28;28.75;;;;;;;;;;143738;619;47022;-54
2022/01/14 04:53:39;;;;;;;46.72;30.25;;;;;;;;;;143736;564;46916;-53
2022/01/14 04:56:07;;;;;;;44.33;28.80;;;;;;;;;;143740;578;46020;-53
2022/01/14 04:58:34;;;;;;;46.83;28.35;;;;;;;;;;143738;592;46021;-53
2022/01/14 05:01:01;;;;;;;39.72;25.17;;;;;;;;;;143741;590;46022;-54
2022/01/14 05:03:28;;;;;;;42.25;26.73;;;;;;;;;;143739;574;46020;-54
2022/01/14 05:05:58;;;;;;;43.45;26.55;;;;;;;;;;143734;586;46021;-53
2022/01/14 05:08:31;;;;;;;40.88;26.95;;;;;;;;;;143742;569;46020;-54
2022/01/14 05:13:34;;;;;;;39.22;24.37;;;;;;;;;;143739;565;46021;-53
2022/01/14 05:16:01;;;;;;;42.58;27.37;;;;;;;;;;143739;614;46911;-53
2022/01/14 05:18:28;;;;;;;41.75;26.85;;;;;;;;;;143739;592;46020;-54
2022/01/14 05:20:55;;;;;;;42.67;28.77;;;;;;;;;;143741;597;46023;-54
2022/01/14 05:23:24;;;;;;;41.75;28.50;;;;;;;;;;143739;583;46020;-54
2022/01/14 05:25:51;;;;;;;42.58;27.20;;;;;;;;;;143741;617;46020;-54
2022/01/14 05:28:17;;;;;;;39.25;25.02;;;;;;;;;;143741;574;46021;-53
2022/01/14 05:30:45;;;;;;;40.90;26.62;;;;;;;;;;143732;765;47022;-53
2022/01/14 05:33:12;;;;;;;40.53;25.23;;;;;;;;;;143739;596;46010;-54
2022/01/14 05:35:39;;;;;;;38.97;26.37;;;;;;;;;;143738;583;46021;-53
2022/01/14 05:38:05;;;;;;;38.38;26.62;;;;;;;;;;143739;586;46020;-53
2022/01/14 05:40:33;;;;;;;48.63;28.65;;;;;;;;;;143739;579;47020;-53
2022/01/14 05:43:00;;;;;;;41.15;26.83;;;;;;;;;;143739;570;46010;-54
2022/01/14 05:45:28;;;;;;;42.58;27.50;;;;;;;;;;143738;584;46020;-53
2022/01/14 05:47:55;;;;;;;44.38;26.48;;;;;;;;;;143743;566;46020;-54
2022/01/14 05:50:25;;;;;;;40.05;26.67;;;;;;;;;;143735;609;47022;-54
2022/01/14 05:52:52;;;;;;;44.33;30.65;;;;;;;;;;143738;584;46020;-53
2022/01/14 05:55:21;;;;;;;44.15;29.85;;;;;;;;;;143734;588;46020;-54
2022/01/14 05:57:48;;;;;;;42.83;29.42;;;;;;;;;;143743;564;46021;-54
2022/01/14 06:00:19;;;;;;;41.25;28.90;;;;;;;;;;143740;606;46022;-54
2022/01/14 06:02:47;;;;;;;43.90;31.62;;;;;;;;;;143741;593;46010;-54
2022/01/14 06:05:14;;;;;;;51.40;33.58;;;;;;;;;;143738;577;46020;-54
2022/01/14 06:07:41;;;;;;;51.20;37.28;;;;;;;;;;143739;596;46020;-54
2022/01/14 06:10:10;;;;;;;43.75;31.25;;;;;;;;;;143741;618;46022;-54
2022/01/14 06:12:38;;;;;;;49.75;34.78;;;;;;;;;;143741;617;46010;-54
2022/01/14 06:15:06;;;;;;;42.58;30.27;;;;;;;;;;143739;575;46020;-54
2022/01/14 06:17:33;;;;;;;42.67;29.85;;;;;;;;;;143743;595;46020;-54
2022/01/14 06:20:00;;;;;;;41.28;29.67;;;;;;;;;;143736;573;46022;-54
2022/01/14 06:22:27;;;;;;;41.00;28.50;;;;;;;;;;143740;571;46020;-54
2022/01/14 06:24:54;;;;;;;40.53;27.25;;;;;;;;;;143741;603;46020;-54
2022/01/14 06:27:21;;;;;;;41.50;29.98;;;;;;;;;;143743;577;46020;-53
2022/01/14 06:29:48;;;;;;;43.28;31.08;;;;;;;;;;143737;602;47023;-54
2022/01/14 06:32:15;;;;;;;75.07;48.15;;;;;;;;;;143737;564;46020;-54
2022/01/14 06:34:42;;;;;;;43.83;30.30;;;;;;;;;;143740;601;46021;-54
2022/01/14 06:37:09;;;;;;;39.72;26.65;;;;;;;;;;143740;571;46020;-53
2022/01/14 06:39:36;;;;;;;40.35;23.87;;;;;;;;;;143740;584;46022;-54
2022/01/14 06:42:03;;;;;;;40.00;24.63;;;;;;;;;;143740;592;46011;-54
2022/01/14 06:44:30;;;;;;;33.13;23.75;;;;;;;;;;143734;566;46020;-54
2022/01/14 06:46:57;;;;;;;37.17;24.77;;;;;;;;;;143736;642;46020;-54
2022/01/14 06:49:24;;;;;;;35.78;24.92;;;;;;;;;;143741;651;46022;-54
2022/01/14 06:51:51;;;;;;;35.10;25.12;;;;;;;;;;143736;571;46020;-54
2022/01/14 06:54:18;;;;;;;53.28;32.92;;;;;;;;;;143739;662;46020;-54
2022/01/14 06:56:45;;;;;;;82.35;48.10;;;;;;;;;;143740;740;47020;-54
2022/01/14 06:59:13;;;;;;;130.25;75.97;;;;;;;;;;143740;597;46049;-54
2022/01/14 07:01:40;;;;;;;110.82;65.30;;;;;;;;;;143735;566;46020;-54
2022/01/14 07:04:07;;;;;;;78.97;45.33;;;;;;;;;;143739;601;46020;-54
2022/01/14 07:06:34;;;;;;;67.62;40.33;;;;;;;;;;143742;585;46021;-54
2022/01/14 07:09:01;;;;;;;59.90;37.45;;;;;;;;;;143733;607;47022;-54
2022/01/14 07:11:34;;;;;;;48.72;29.95;;;;;;;;;;143739;614;46010;-54
2022/01/14 07:14:01;;;;;;;46.88;29.60;;;;;;;;;;143737;590;46021;-55
2022/01/14 07:16:28;;;;;;;45.88;28.70;;;;;;;;;;143738;587;46020;-55
2022/01/14 07:18:55;;;;;;;48.05;32.53;;;;;;;;;;143737;565;46022;-55
2022/01/14 07:21:22;;;;;;;48.60;32.10;;;;;;;;;;143739;585;46010;-55
2022/01/14 07:23:50;;;;;;;41.80;29.65;;;;;;;;;;143738;601;46020;-55
2022/01/14 07:26:17;;;;;;;45.88;28.20;;;;;;;;;;143739;613;46020;-56
2022/01/14 07:28:44;;;;;;;45.95;26.98;;;;;;;;;;143734;583;47020;-55
2022/01/14 07:31:11;;;;;;;83.82;44.80;;;;;;;;;;143738;601;46020;-55
2022/01/14 07:33:39;;;;;;;74.12;42.88;;;;;;;;;;143730;580;46021;-56
2022/01/14 07:36:06;;;;;;;72.93;44.33;;;;;;;;;;143736;680;46021;-55
2022/01/14 07:38:33;;;;;;;49.00;30.70;;;;;;;;;;143738;569;46048;-55
2022/01/14 07:41:00;;;;;;;42.28;27.15;;;;;;;;;;143737;573;46021;-55
2022/01/14 07:43:27;;;;;;;45.95;29.50;;;;;;;;;;143739;575;46021;-55
2022/01/14 07:45:54;;;;;;;41.30;25.50;;;;;;;;;;143738;565;46020;-55
2022/01/14 07:48:21;;;;;;;47.22;27.55;;;;;;;;;;143736;633;47020;-54
2022/01/14 07:50:49;;;;;;;42.42;26.05;;;;;;;;;;143737;696;46010;-55
2022/01/14 07:53:16;;;;;;;33.25;21.90;;;;;;;;;;143735;569;46020;-55
2022/01/14 07:55:43;;;;;;;32.95;21.83;;;;;;;;;;143737;630;46020;-55
2022/01/14 07:58:10;;;;;;;33.08;20.37;;;;;;;;;;143736;596;46023;-55
2022/01/14 08:00:38;;;;;;;33.38;21.42;;;;;;;;;;143738;647;46010;-55
2022/01/14 08:03:05;;;;;;;38.83;20.65;;;;;;;;;;143735;578;46020;-55
2022/01/14 08:05:33;;;;;;;30.60;20.70;;;;;;;;;;143738;611;46021;-55
2022/01/14 08:08:04;;;;;;;25.80;18.37;;;;;;;;;;143735;606;47020;-55
2022/01/14 08:10:32;;;;;;;26.87;19.35;;;;;;;;;;143739;576;46011;-55
2022/01/14 08:12:59;;;;;;;26.45;18.33;;;;;;;;;;143739;602;46021;-55
2022/01/14 08:15:26;;;;;;;25.25;18.08;;;;;;;;;;143737;589;46020;-55
2022/01/14 08:17:56;;;;;;;25.42;19.00;;;;;;;;;;143736;615;47022;-55
2022/01/14 08:20:23;;;;;;;29.45;18.65;;;;;;;;;;143738;571;46010;-55
2022/01/14 08:22:50;;;;;;;24.12;17.20;;;;;;;;;;143733;588;46020;-55
2022/01/14 08:25:17;;;;;;;24.00;17.62;;;;;;;;;;143741;664;46020;-55
2022/01/14 08:27:44;;;;;;;32.33;18.85;;;;;;;;;;143738;663;46021;-54
2022/01/14 08:30:12;;;;;;;26.55;18.25;;;;;;;;;;143739;576;46010;-54
2022/01/14 08:32:39;;;;;;;26.52;20.10;;;;;;;;;;143737;588;46020;-55
2022/01/14 08:35:06;;;;;;;26.45;17.75;;;;;;;;;;143740;565;46021;-55
2022/01/14 08:37:33;;;;;;;26.25;16.83;;;;;;;;;;143738;593;46022;-56
2022/01/14 08:40:00;;;;;;;20.92;15.60;;;;;;;;;;143737;592;46011;-56
2022/01/14 08:42:27;;;;;;;19.60;15.05;;;;;;;;;;143737;590;46021;-56
2022/01/14 08:44:54;;;;;;;22.23;15.40;;;;;;;;;;143742;569;46020;-56
2022/01/14 08:47:21;;;;;;;26.73;15.02;;;;;;;;;;143731;713;47010;-56
2022/01/14 08:49:48;;;;;;;22.58;14.38;;;;;;;;;;143734;588;47010;-56
2022/01/14 08:52:16;;;;;;;17.35;13.77;;;;;;;;;;143738;688;46020;-56
2022/01/14 08:54:43;;;;;;;20.33;13.93;;;;;;;;;;143740;717;46020;-56
2022/01/14 08:57:10;;;;;;;22.23;14.93;;;;;;;;;;143738;637;46023;-56
2022/01/14 08:59:37;;;;;;;21.17;15.02;;;;;;;;;;143738;721;46010;-56
2022/01/14 09:02:05;;;;;;;24.58;17.80;;;;;;;;;;143739;573;46020;-56
2022/01/14 09:04:32;;;;;;;25.35;18.45;;;;;;;;;;143737;688;46021;-57
2022/01/14 09:06:59;;;;;;;28.48;20.25;;;;;;;;;;143737;592;46022;-56
2022/01/14 09:09:26;;;;;;;22.95;17.83;;;;;;;;;;143736;585;46010;-57
2022/01/14 09:11:54;;;;;;;24.35;16.77;;;;;;;;;;143731;576;46021;-57
2022/01/14 09:14:22;;;;;;;34.95;17.35;;;;;;;;;;143738;593;46020;-56
2022/01/14 09:16:48;;;;;;;29.52;18.45;;;;;;;;;;143733;678;47022;-56
2022/01/14 09:19:16;;;;;;;24.17;15.63;;;;;;;;;;143736;584;46020;-57
2022/01/14 09:21:44;;;;;;;26.62;16.48;;;;;;;;;;143735;582;46020;-58
2022/01/14 09:24:11;;;;;;;53.70;35.00;;;;;;;;;;143737;571;46020;-56
2022/01/14 09:26:39;;;;;;;36.33;23.40;;;;;;;;;;143736;564;47021;-56
2022/01/14 09:29:08;;;;;;;31.12;16.12;;;;;;;;;;143735;591;46010;-56
2022/01/14 09:31:36;;;;;;;30.65;21.85;;;;;;;;;;143736;573;46020;-56
2022/01/14 09:34:03;;;;;;;23.08;15.32;;;;;;;;;;143738;672;46020;-56
2022/01/14 09:36:30;;;;;;;21.08;15.57;;;;;;;;;;143736;637;46022;-56
2022/01/14 09:38:58;;;;;;;26.10;17.20;;;;;;;;;;143736;596;46020;-56
2022/01/14 09:41:25;;;;;;;21.33;16.10;;;;;;;;;;143739;593;46022;-56
2022/01/14 09:43:53;;;;;;;23.17;14.63;;;;;;;;;;143737;581;46020;-57
2022/01/14 09:46:20;;;;;;;22.02;14.87;;;;;;;;;;143739;615;46022;-56
2022/01/14 09:48:50;;;;;;;20.52;14.15;;;;;;;;;;143737;575;46010;-57
2022/01/14 09:51:17;;;;;;;45.42;30.12;;;;;;;;;;143738;585;46020;-57
2022/01/14 09:53:44;;;;;;;52.35;31.17;;;;;;;;;;143740;607;46020;-57
2022/01/14 09:56:15;;;;;;;48.00;33.33;;;;;;;;;;143740;624;46022;-57
2022/01/14 09:58:46;;;;;;;33.97;23.38;;;;;;;;;;143738;626;46010;-58
2022/01/14 10:01:18;;;;;;;31.80;21.67;;;;;;;;;;143732;744;46020;-58
2022/01/14 10:04:01;;;;;;;25.15;18.65;;;;;;;;;;143735;579;46021;-58
2022/01/14 10:07:06;;;;;;;23.02;17.33;;;;;;;;;;143738;610;46023;-58
2022/01/14 10:09:40;;;;;;;20.90;15.27;;;;;;;;;;143739;574;46011;-58
2022/01/14 10:12:18;;;;;;;22.73;15.07;;;;;;;;;;143739;564;46021;-58
2022/01/14 10:15:06;;;;;;;18.98;13.45;;;;;;;;;;143740;582;46020;-58
2022/01/14 10:17:51;;;;;;;18.05;13.85;;;;;;;;;;143739;584;46022;-58
2022/01/14 10:20:18;;;;;;;14.83;11.30;;;;;;;;;;143737;601;46020;-58
2022/01/14 10:22:49;;;;;;;15.60;11.55;;;;;;;;;;143736;583;46020;-57
2022/01/14 10:25:19;;;;;;;16.70;12.05;;;;;;;;;;143740;606;46020;-58
2022/01/14 10:27:49;;;;;;;18.08;11.27;;;;;;;;;;143731;727;47023;-58
2022/01/14 10:30:32;;;;;;;17.67;12.88;;;;;;;;;;143737;575;46020;-58
2022/01/14 10:33:05;;;;;;;14.57;11.48;;;;;;;;;;143735;585;46021;-58
2022/01/14 10:35:45;;;;;;;21.90;13.57;;;;;;;;;;143739;629;46021;-58
2022/01/14 10:38:15;;;;;;;19.52;13.32;;;;;;;;;;143738;572;47010;-57
2022/01/14 10:40:52;;;;;;;17.98;13.02;;;;;;;;;;143738;585;46010;-57
2022/01/14 10:43:22;;;;;;;17.55;12.00;;;;;;;;;;143738;642;46020;-57
2022/01/14 10:45:50;;;;;;;15.82;11.70;;;;;;;;;;143738;702;46020;-57
2022/01/14 10:48:38;;;;;;;48.13;29.55;;;;;;;;;;143739;582;46022;-57
2022/01/14 10:51:17;;;;;;;40.10;24.70;;;;;;;;;;143738;590;46010;-57
2022/01/14 10:53:53;;;;;;;29.85;17.23;;;;;;;;;;143734;591;46020;-57
2022/01/14 10:56:23;;;;;;;24.23;15.75;;;;;;;;;;143742;634;46021;-57
2022/01/14 10:58:56;;;;;;;15.95;10.98;;;;;;;;;;143739;643;46047;-57
2022/01/14 11:01:25;;;;;;;18.77;12.73;;;;;;;;;;143739;644;46010;-57
2022/01/14 11:04:03;;;;;;;15.45;9.73;;;;;;;;;;143738;570;46021;-57
2022/01/14 11:06:40;;;;;;;13.95;10.27;;;;;;;;;;143741;626;46020;-56
2022/01/14 11:09:18;;;;;;;15.27;10.38;;;;;;;;;;143738;581;46051;-57
2022/01/14 11:11:47;;;;;;;13.25;10.10;;;;;;;;;;143738;618;46020;-57
2022/01/14 11:14:15;;;;;;;13.65;9.85;;;;;;;;;;143737;615;46020;-57
2022/01/14 11:16:43;;;;;;;17.20;10.23;;;;;;;;;;143737;591;46020;-56
2022/01/14 11:19:10;;;;;;;13.40;9.85;;;;;;;;;;143734;627;46023;-56
2022/01/14 11:24:25;;;;;;;14.25;9.77;;;;;;;;;;143740;566;46022;-57
2022/01/14 11:27:16;;;;;;;14.27;9.52;;;;;;;;;;143741;582;46021;-57
2022/01/14 11:29:48;;;;;;;16.67;9.63;;;;;;;;;;143740;597;46022;-57
2022/01/14 11:32:15;;;;;;;12.80;9.30;;;;;;;;;;143741;646;46010;-56
2022/01/14 11:34:47;;;;;;;12.75;9.25;;;;;;;;;;143738;565;46021;-56
2022/01/14 11:37:30;;;;;;;10.95;8.30;;;;;;;;;;143742;569;46020;-56
2022/01/14 11:40:03;;;;;;;18.50;7.60;;;;;;;;;;143727;641;47021;-57
2022/01/14 11:42:59;;;;;;;11.93;8.68;;;;;;;;;;143739;645;46023;-57
2022/01/14 11:46:04;;;;;;;12.55;8.30;;;;;;;;;;143734;640;46022;-57
2022/01/14 11:48:37;;;;;;;14.30;9.32;;;;;;;;;;143741;600;46023;-57
2022/01/14 11:51:07;;;;;;;13.18;9.73;;;;;;;;;;143738;576;46022;-57
2022/01/14 11:53:42;;;;;;;12.80;9.18;;;;;;;;;;143738;574;46021;-57
2022/01/14 11:56:46;;;;;;;13.62;9.30;;;;;;;;;;143738;640;46021;-57
2022/01/14 11:59:40;;;;;;;12.57;8.80;;;;;;;;;;143742;590;46020;-57
2022/01/14 12:02:41;;;;;;;12.63;8.45;;;;;;;;;;143737;564;47024;-56
2022/01/14 12:05:13;;;;;;;13.75;8.82;;;;;;;;;;143740;577;46010;-56
2022/01/14 12:08:18;;;;;;;15.73;9.55;;;;;;;;;;143738;579;46020;-56
2022/01/14 12:10:57;;;;;;;11.40;8.38;;;;;;;;;;143742;598;46021;-56
2022/01/14 12:13:50;;;;;;;12.18;9.00;;;;;;;;;;143735;569;46022;-56
2022/01/14 12:19:24;;;;;;;13.90;9.60;;;;;;;;;;143736;582;47021;-56
2022/01/14 12:21:52;;;;;;;15.13;9.90;;;;;;;;;;143745;645;46020;-56
2022/01/14 12:24:31;;;;;;;16.98;9.82;;;;;;;;;;143741;613;46022;-56
2022/01/14 12:27:21;;;;;;;13.90;9.95;;;;;;;;;;143738;613;46010;-56
2022/01/14 12:30:00;;;;;;;19.05;11.35;;;;;;;;;;143739;577;46020;-57
2022/01/14 12:32:38;;;;;;;16.08;10.65;;;;;;;;;;143742;606;46021;-56
2022/01/14 12:35:12;;;;;;;30.90;16.95;;;;;;;;;;143739;574;46022;-57
2022/01/14 12:37:51;;;;;;;27.65;18.23;;;;;;;;;;143740;572;46020;-56
2022/01/14 12:40:21;;;;;;;38.65;24.87;;;;;;;;;;143733;615;46912;-55
2022/01/14 12:43:00;;;;;;;33.83;23.20;;;;;;;;;;143743;671;46020;-56
2022/01/14 12:45:41;;;;;;;24.02;16.65;;;;;;;;;;143738;576;46022;-57
2022/01/14 12:48:32;;;;;;;24.92;15.52;;;;;;;;;;143740;642;46010;-57
2022/01/14 12:51:10;;;;;;;19.23;13.05;;;;;;;;;;143737;573;46020;-56
2022/01/14 12:53:37;;;;;;;23.30;14.18;;;;;;;;;;143740;575;46020;-56
2022/01/14 12:56:15;;;;;;;18.67;13.10;;;;;;;;;;143737;583;47020;-56
2022/01/14 12:59:13;;;;;;;19.55;12.80;;;;;;;;;;143740;583;46010;-56
2022/01/14 13:01:51;;;;;;;16.48;12.32;;;;;;;;;;143737;653;46023;-57
2022/01/14 13:04:21;;;;;;;17.40;12.05;;;;;;;;;;143743;604;46020;-57
2022/01/14 13:06:53;;;;;;;20.55;12.50;;;;;;;;;;143735;640;46022;-56
2022/01/14 13:09:30;;;;;;;14.75;11.07;;;;;;;;;;143732;594;46021;-56
2022/01/14 13:12:02;;;;;;;15.95;11.50;;;;;;;;;;143737;580;46020;-56
2022/01/14 13:14:34;;;;;;;18.12;12.32;;;;;;;;;;143742;643;46020;-56
2022/01/14 13:17:04;;;;;;;17.15;11.50;;;;;;;;;;143739;581;46023;-56
2022/01/14 13:19:33;;;;;;;20.70;11.52;;;;;;;;;;143736;607;46020;-56
2022/01/14 13:22:08;;;;;;;16.95;11.07;;;;;;;;;;143737;582;46020;-56
2022/01/14 13:24:37;;;;;;;17.30;11.32;;;;;;;;;;143742;585;46021;-57
2022/01/14 13:27:11;;;;;;;17.55;10.98;;;;;;;;;;143740;626;46022;-56
2022/01/14 13:29:41;;;;;;;16.17;11.00;;;;;;;;;;143741;617;46010;-56
2022/01/14 13:32:10;;;;;;;15.15;10.43;;;;;;;;;;143734;707;46021;-56
2022/01/14 13:34:37;;;;;;;14.43;9.63;;;;;;;;;;143742;579;46020;-55
2022/01/14 13:37:05;;;;;;;13.62;9.13;;;;;;;;;;143739;597;46039;-57
2022/01/14 13:39:31;;;;;;;18.77;11.40;;;;;;;;;;143740;583;46010;-56
2022/01/14 13:41:59;;;;;;;21.45;11.15;;;;;;;;;;143741;738;46020;-57
2022/01/14 13:44:32;;;;;;;21.17;12.15;;;;;;;;;;143741;648;46020;-56
2022/01/14 13:47:02;;;;;;;14.75;9.80;;;;;;;;;;143737;564;46022;-56
2022/01/14 13:49:29;;;;;;;15.75;10.38;;;;;;;;;;143740;589;46020;-56
2022/01/14 13:52:30;;;;;;;12.98;9.55;;;;;;;;;;143739;674;46020;-56
2022/01/14 13:54:57;;;;;;;16.75;11.12;;;;;;;;;;143741;569;46023;-56
2022/01/14 13:57:24;;;;;;;14.50;10.02;;;;;;;;;;143734;588;46022;-56
2022/01/14 13:59:51;;;;;;;14.75;9.80;;;;;;;;;;143739;612;46010;-56
2022/01/14 14:02:30;;;;;;;13.60;9.20;;;;;;;;;;143738;639;46021;-57
2022/01/14 14:04:58;;;;;;;14.82;9.52;;;;;;;;;;143741;627;46020;-57
2022/01/14 14:07:26;;;;;;;13.45;9.82;;;;;;;;;;143740;599;46022;-57
2022/01/14 14:10:30;;;;;;;16.25;10.05;;;;;;;;;;143743;614;46010;-56
2022/01/14 14:13:09;;;;;;;12.32;9.27;;;;;;;;;;143726;570;46020;-56
2022/01/14 14:15:48;;;;;;;13.82;9.13;;;;;;;;;;143742;584;46020;-57
2022/01/14 14:18:16;;;;;;;14.52;9.75;;;;;;;;;;143741;571;46023;-56
2022/01/14 14:20:42;;;;;;;13.15;9.43;;;;;;;;;;143742;564;46010;-57
2022/01/14 14:23:20;;;;;;;12.70;8.77;;;;;;;;;;143734;564;46020;-56
2022/01/14 14:25:49;;;;;;;16.40;10.15;;;;;;;;;;143743;594;46021;-57
2022/01/14 14:28:25;;;;;;;16.40;9.90;;;;;;;;;;143740;606;46042;-57
2022/01/14 14:30:52;;;;;;;14.68;9.18;;;;;;;;;;143740;565;46021;-56
2022/01/14 14:33:21;;;;;;;14.30;9.23;;;;;;;;;;143739;572;46021;-57
2022/01/14 14:35:49;;;;;;;14.20;8.40;;;;;;;;;;143744;577;46020;-57
2022/01/14 14:38:20;;;;;;;14.13;8.48;;;;;;;;;;143740;588;47022;-57
2022/01/14 14:40:50;;;;;;;11.93;8.77;;;;;;;;;;143740;583;46010;-57
2022/01/14 14:43:18;;;;;;;13.57;8.55;;;;;;;;;;143739;564;46020;-56
2022/01/14 14:45:45;;;;;;;14.15;8.00;;;;;;;;;;143743;583;46020;-56
2022/01/14 14:48:13;;;;;;;13.48;8.23;;;;;;;;;;143736;572;46023;-57
2022/01/14 14:50:40;;;;;;;13.60;8.98;;;;;;;;;;143740;611;46010;-56
2022/01/14 14:53:07;;;;;;;11.30;8.15;;;;;;;;;;143740;603;46021;-56
2022/01/14 14:55:34;;;;;;;12.57;9.05;;;;;;;;;;143743;579;46021;-56
2022/01/14 14:58:03;;;;;;;11.82;8.45;;;;;;;;;;143741;662;46048;-57
2022/01/14 15:00:31;;;;;;;18.83;11.20;;;;;;;;;;143741;642;46011;-57
2022/01/14 15:02:58;;;;;;;17.25;10.60;;;;;;;;;;143739;564;46021;-56
2022/01/14 15:05:25;;;;;;;14.07;10.07;;;;;;;;;;143743;647;46020;-57
2022/01/14 15:07:52;;;;;;;13.88;9.70;;;;;;;;;;143741;598;46022;-56